Time;durP1;ratioP1;P1;durP2;ratioP2;P2;SDS_P1;SDS_P2;PMS_P1;PMS_P2;Temp;Humidity;BMP_temperature;BMP_pressure;BME280_temperature;BME280_humidity;BME280_pressure;Samples;Min_cycle;Max_cycle;Signal;HPM_P1;HPM_P2
2021/10/04 00:00:24;;;;;;;1.50;0.95;;;17.60;83.20;;;;;;5021544;28;20030;-63
2021/10/04 00:02:49;;;;;;;4.43;1.10;;;17.60;83.10;;;;;;5022124;28;20428;-62
2021/10/04 00:05:15;;;;;;;2.10;0.90;;;17.60;83.10;;;;;;5025199;28;20044;-62
2021/10/04 00:07:40;;;;;;;1.40;0.80;;;17.60;83.40;;;;;;5027659;28;20432;-65
2021/10/04 00:10:08;;;;;;;3.80;1.23;;;17.60;83.10;;;;;;5017582;28;20037;-62
2021/10/04 00:12:33;;;;;;;7.78;1.00;;;17.70;83.10;;;;;;5024585;28;20033;-63
2021/10/04 00:14:59;;;;;;;2.58;0.77;;;17.60;82.00;;;;;;5018958;28;20282;-60
2021/10/04 00:17:24;;;;;;;2.58;1.00;;;17.60;83.00;;;;;;5021273;28;20128;-60
2021/10/04 00:19:50;;;;;;;1.45;0.90;;;17.50;83.10;;;;;;5024991;28;20018;-60
2021/10/04 00:22:15;;;;;;;3.28;0.88;;;17.60;83.30;;;;;;5016668;28;20129;-60
2021/10/04 00:24:41;;;;;;;3.35;1.05;;;17.50;83.20;;;;;;5015252;28;20104;-60
2021/10/04 00:27:06;;;;;;;7.20;1.60;;;17.50;83.20;;;;;;5014279;28;20046;-60
2021/10/04 00:29:32;;;;;;;11.82;2.47;;;17.60;83.30;;;;;;5023993;28;20388;-62
2021/10/04 00:31:57;;;;;;;5.35;1.30;;;17.50;82.90;;;;;;5014106;28;20452;-62
2021/10/04 00:34:23;;;;;;;7.93;1.50;;;17.50;82.90;;;;;;5025549;28;20515;-60
2021/10/04 00:36:48;;;;;;;6.07;1.00;;;17.50;82.60;;;;;;4996199;28;20034;-61
2021/10/04 00:39:14;;;;;;;6.00;1.20;;;17.50;82.40;;;;;;5025987;28;20033;-60
2021/10/04 00:41:39;;;;;;;10.55;1.58;;;17.50;82.50;;;;;;5022052;28;20046;-60
2021/10/04 00:44:05;;;;;;;7.32;1.00;;;17.50;82.40;;;;;;5020502;28;20030;-60
2021/10/04 00:46:31;;;;;;;7.32;1.55;;;17.50;82.60;;;;;;5019866;28;20124;-60
2021/10/04 00:48:56;;;;;;;8.38;1.48;;;17.50;82.80;;;;;;5021456;28;20030;-60
2021/10/04 00:51:22;;;;;;;7.28;1.17;;;17.50;82.80;;;;;;5019047;28;20037;-60
2021/10/04 00:53:48;;;;;;;4.25;0.95;;;17.50;82.90;;;;;;5004486;28;20414;-60
2021/10/04 00:56:15;;;;;;;4.00;0.90;;;17.50;83.00;;;;;;4998644;28;20030;-60
2021/10/04 00:58:40;;;;;;;4.90;1.00;;;17.50;83.10;;;;;;5022502;28;20088;-60
2021/10/04 01:01:06;;;;;;;10.82;1.05;;;17.50;83.10;;;;;;5019503;28;20459;-60
2021/10/04 01:03:31;;;;;;;3.33;1.00;;;17.40;83.00;;;;;;5022936;28;20128;-60
2021/10/04 01:05:57;;;;;;;6.25;1.00;;;17.40;83.10;;;;;;5026960;28;20096;-60
2021/10/04 01:08:23;;;;;;;5.00;1.10;;;17.40;83.10;;;;;;5009179;28;20371;-60
2021/10/04 01:10:48;;;;;;;3.80;0.82;;;17.40;83.00;;;;;;5022350;28;20037;-59
2021/10/04 01:13:14;;;;;;;5.00;1.00;;;17.40;83.00;;;;;;5029805;28;20294;-60
2021/10/04 01:15:39;;;;;;;1.48;0.80;;;17.40;83.00;;;;;;5008082;28;20159;-60
2021/10/04 01:18:06;;;;;;;3.35;0.90;;;17.30;83.00;;;;;;5026418;28;20042;-60
2021/10/04 01:20:31;;;;;;;2.10;0.80;;;17.30;83.00;;;;;;5028757;28;20116;-60
2021/10/04 01:22:57;;;;;;;8.45;1.00;;;17.30;83.00;;;;;;5028940;28;20116;-60
2021/10/04 01:25:23;;;;;;;2.55;0.80;;;17.30;83.10;;;;;;5027421;28;20125;-60
2021/10/04 01:27:49;;;;;;;2.78;1.13;;;17.30;83.10;;;;;;5020622;28;20165;-60
2021/10/04 01:30:16;;;;;;;2.17;0.60;;;17.30;83.10;;;;;;4999419;28;20176;-60
2021/10/04 01:32:42;;;;;;;2.10;0.98;;;17.30;83.20;;;;;;5022090;28;20501;-60
2021/10/04 01:35:08;;;;;;;4.68;0.95;;;17.30;83.20;;;;;;5023693;28;20025;-60
2021/10/04 01:37:34;;;;;;;1.17;0.70;;;17.30;83.20;;;;;;5024285;28;20024;-60
2021/10/04 01:39:59;;;;;;;2.25;0.82;;;17.30;83.20;;;;;;5019696;28;20022;-60
2021/10/04 01:42:25;;;;;;;1.85;0.63;;;17.30;83.20;;;;;;5025953;28;20046;-59
2021/10/04 01:44:50;;;;;;;5.22;0.80;;;17.20;83.30;;;;;;5025667;28;20462;-60
2021/10/04 01:47:16;;;;;;;4.15;0.80;;;17.30;83.40;;;;;;5020198;28;20029;-60
2021/10/04 01:49:43;;;;;;;1.77;0.80;;;17.20;83.20;;;;;;5013193;28;20041;-60
2021/10/04 01:52:12;;;;;;;0.82;0.55;;;17.20;83.20;;;;;;5018480;28;20574;-60
2021/10/04 01:54:39;;;;;;;2.05;0.52;;;17.20;83.20;;;;;;5019842;28;20398;-61
2021/10/04 01:57:04;;;;;;;1.17;0.65;;;17.20;83.40;;;;;;5026198;28;20024;-60
2021/10/04 01:59:30;;;;;;;3.65;0.68;;;17.20;83.30;;;;;;5023307;28;20128;-60
2021/10/04 02:01:55;;;;;;;1.52;0.60;;;17.20;83.40;;;;;;5024028;28;20171;-60
2021/10/04 02:04:21;;;;;;;4.18;1.05;;;17.20;83.40;;;;;;5018135;28;20501;-60
2021/10/04 02:06:49;;;;;;;1.58;0.60;;;17.20;83.50;;;;;;5020073;28;20041;-60
2021/10/04 02:09:16;;;;;;;3.15;0.82;;;17.20;83.50;;;;;;5026567;28;20116;-60
2021/10/04 02:11:42;;;;;;;2.33;0.73;;;17.10;83.50;;;;;;5024262;28;20028;-60
2021/10/04 02:14:07;;;;;;;1.13;0.60;;;17.10;83.60;;;;;;5025396;28;20425;-60
2021/10/04 02:16:33;;;;;;;0.75;0.60;;;17.20;83.70;;;;;;5010009;28;21050;-60
2021/10/04 02:18:58;;;;;;;1.10;0.60;;;17.20;83.60;;;;;;5022559;28;20108;-60
2021/10/04 02:21:24;;;;;;;1.45;0.47;;;17.10;83.50;;;;;;5023184;28;20041;-60
2021/10/04 02:23:49;;;;;;;3.08;0.70;;;17.10;83.60;;;;;;5021846;28;20120;-60
2021/10/04 02:26:15;;;;;;;1.70;0.70;;;17.10;83.60;;;;;;5024111;28;20072;-60
2021/10/04 02:28:40;;;;;;;0.52;0.35;;;17.10;83.70;;;;;;5018242;28;20064;-60
2021/10/04 02:31:06;;;;;;;1.42;0.70;;;17.10;83.80;;;;;;5027651;28;20137;-60
2021/10/04 02:33:31;;;;;;;2.20;0.65;;;17.00;83.90;;;;;;5024371;28;20041;-60
2021/10/04 02:35:57;;;;;;;1.60;0.70;;;17.00;83.90;;;;;;5027610;28;20014;-60
2021/10/04 02:38:22;;;;;;;0.57;0.47;;;17.00;83.90;;;;;;5026665;28;20127;-60
2021/10/04 02:40:49;;;;;;;0.93;0.50;;;17.00;83.90;;;;;;5024425;28;20080;-60
2021/10/04 02:43:18;;;;;;;1.63;0.52;;;17.00;83.90;;;;;;5019711;28;20014;-60
2021/10/04 02:45:47;;;;;;;2.45;0.50;;;17.00;83.90;;;;;;5038414;28;20026;-60
2021/10/04 02:48:12;;;;;;;1.25;0.47;;;17.00;83.90;;;;;;5004187;28;20017;-60
2021/10/04 02:50:38;;;;;;;0.70;0.40;;;17.00;83.80;;;;;;5026011;28;20036;-60
2021/10/04 02:53:03;;;;;;;1.10;0.57;;;17.00;83.60;;;;;;5025821;28;20056;-60
2021/10/04 02:55:29;;;;;;;1.00;0.90;;;17.00;83.60;;;;;;5025971;28;20072;-60
2021/10/04 02:57:54;;;;;;;1.70;1.25;;;16.90;83.60;;;;;;5004082;28;20532;-60
2021/10/04 03:00:20;;;;;;;2.67;0.70;;;16.90;83.50;;;;;;4988717;28;20427;-60
2021/10/04 03:02:45;;;;;;;0.90;0.80;;;16.90;83.60;;;;;;5021811;28;20056;-60
2021/10/04 03:05:11;;;;;;;1.13;0.98;;;16.90;83.70;;;;;;5026941;28;20044;-60
2021/10/04 03:07:37;;;;;;;1.55;1.20;;;16.90;83.80;;;;;;5021944;28;20044;-60
2021/10/04 03:10:03;;;;;;;3.88;1.08;;;16.80;83.80;;;;;;5023153;28;20156;-60
2021/10/04 03:12:28;;;;;;;2.60;1.00;;;16.80;83.80;;;;;;5022801;28;20033;-60
2021/10/04 03:14:54;;;;;;;4.10;1.30;;;16.80;83.90;;;;;;5020844;28;20037;-60
2021/10/04 03:17:19;;;;;;;1.55;0.90;;;16.80;83.90;;;;;;5021589;28;20026;-60
2021/10/04 03:19:45;;;;;;;1.48;1.02;;;16.80;84.00;;;;;;5027516;28;20093;-60
2021/10/04 03:22:10;;;;;;;1.73;1.02;;;16.80;84.00;;;;;;5020911;28;20029;-60
2021/10/04 03:24:36;;;;;;;2.53;0.75;;;16.70;84.00;;;;;;5025743;28;20053;-60
2021/10/04 03:27:01;;;;;;;1.20;0.68;;;16.80;84.00;;;;;;5022905;28;20108;-60
2021/10/04 03:29:27;;;;;;;3.95;0.98;;;16.70;84.00;;;;;;5026200;28;20091;-60
2021/10/04 03:31:52;;;;;;;0.98;0.85;;;16.70;84.20;;;;;;5018320;28;20448;-60
2021/10/04 03:34:18;;;;;;;2.17;1.08;;;16.70;84.30;;;;;;5005690;28;20025;-60
2021/10/04 03:36:44;;;;;;;1.55;0.70;;;16.70;84.40;;;;;;5019653;28;20038;-60
2021/10/04 03:39:09;;;;;;;2.20;0.80;;;16.70;84.50;;;;;;5023020;28;20030;-60
2021/10/04 03:41:35;;;;;;;1.70;1.10;;;16.60;84.40;;;;;;5022045;28;20361;-60
2021/10/04 03:44:01;;;;;;;1.60;0.80;;;16.60;84.50;;;;;;5013020;28;20036;-60
2021/10/04 03:46:26;;;;;;;1.60;0.90;;;16.60;84.60;;;;;;5020320;28;20465;-60
2021/10/04 03:48:52;;;;;;;1.35;1.00;;;16.60;84.70;;;;;;5026898;28;20119;-60
2021/10/04 03:51:17;;;;;;;1.95;0.95;;;16.60;84.80;;;;;;5009832;28;20500;-60
2021/10/04 03:53:43;;;;;;;1.55;1.00;;;16.60;84.90;;;;;;5027124;28;20021;-60
2021/10/04 03:56:08;;;;;;;1.15;0.80;;;16.60;85.00;;;;;;5025251;28;20033;-60
2021/10/04 03:58:34;;;;;;;1.33;0.85;;;16.60;85.10;;;;;;5027053;28;20420;-61
2021/10/04 04:01:00;;;;;;;1.02;0.80;;;16.50;85.10;;;;;;5019431;28;20030;-60
2021/10/04 04:03:25;;;;;;;2.58;0.68;;;16.50;85.30;;;;;;5024030;28;20326;-60
2021/10/04 04:05:51;;;;;;;1.85;0.70;;;16.50;85.40;;;;;;5022249;28;20441;-60
2021/10/04 04:08:16;;;;;;;0.80;0.70;;;16.50;85.40;;;;;;5025243;28;20029;-60
2021/10/04 04:10:42;;;;;;;1.20;0.60;;;16.50;85.60;;;;;;5021263;28;20454;-60
2021/10/04 04:13:07;;;;;;;1.35;0.75;;;16.40;85.70;;;;;;5026277;28;20053;-60
2021/10/04 04:15:33;;;;;;;1.90;0.70;;;16.40;85.70;;;;;;5022398;28;20492;-60
2021/10/04 04:17:58;;;;;;;3.08;0.80;;;16.40;85.90;;;;;;5020316;28;20495;-60
2021/10/04 04:20:24;;;;;;;2.72;0.82;;;16.40;86.00;;;;;;5014837;28;20479;-60
2021/10/04 04:22:49;;;;;;;2.67;0.70;;;16.40;86.00;;;;;;5003411;28;20045;-60
2021/10/04 04:25:15;;;;;;;1.92;0.55;;;16.40;86.20;;;;;;5016029;28;20058;-60
2021/10/04 04:27:41;;;;;;;0.70;0.70;;;16.40;86.20;;;;;;5004441;28;20370;-60
2021/10/04 04:30:07;;;;;;;1.00;0.57;;;16.40;86.40;;;;;;5015774;28;20473;-60
2021/10/04 04:32:32;;;;;;;2.03;0.40;;;16.30;86.30;;;;;;5024240;28;20281;-60
2021/10/04 04:34:58;;;;;;;1.85;0.50;;;16.30;86.40;;;;;;5019682;28;20022;-60
2021/10/04 04:37:23;;;;;;;1.13;0.52;;;16.30;86.40;;;;;;5021504;28;20054;-60
2021/10/04 04:39:49;;;;;;;3.35;0.80;;;16.30;86.50;;;;;;5019800;28;20022;-60
2021/10/04 04:42:14;;;;;;;4.07;0.77;;;16.30;86.50;;;;;;5026030;28;20048;-60
2021/10/04 04:44:40;;;;;;;2.70;0.77;;;16.30;86.60;;;;;;5019378;28;20446;-60
2021/10/04 04:47:05;;;;;;;2.10;0.70;;;16.30;86.70;;;;;;5022641;28;20137;-60
2021/10/04 04:49:31;;;;;;;2.65;0.77;;;16.30;86.80;;;;;;5026173;28;20060;-62
2021/10/04 04:51:58;;;;;;;0.47;0.47;;;16.30;86.90;;;;;;5031326;28;20061;-62
2021/10/04 04:54:23;;;;;;;1.27;0.50;;;16.30;87.00;;;;;;5019456;28;20018;-63
2021/10/04 04:56:49;;;;;;;0.55;0.47;;;16.20;87.10;;;;;;5029063;28;20021;-62
2021/10/04 04:59:15;;;;;;;0.95;0.73;;;16.20;87.80;;;;;;5025234;28;20041;-62
2021/10/04 05:01:41;;;;;;;0.90;0.57;;;16.20;87.20;;;;;;5027915;28;20029;-62
2021/10/04 05:04:07;;;;;;;1.83;0.63;;;16.20;87.20;;;;;;5024264;28;20168;-63
2021/10/04 05:06:33;;;;;;;1.67;0.60;;;16.20;87.40;;;;;;5027245;28;20129;-63
2021/10/04 05:08:58;;;;;;;0.85;0.60;;;16.20;87.50;;;;;;5027050;28;20021;-63
2021/10/04 05:11:24;;;;;;;3.10;0.90;;;16.10;87.60;;;;;;5015094;28;20107;-62
2021/10/04 05:13:49;;;;;;;1.08;0.68;;;16.10;87.70;;;;;;5023254;28;20457;-62
2021/10/04 05:16:15;;;;;;;1.20;0.50;;;16.10;87.70;;;;;;5023196;28;20082;-62
2021/10/04 05:18:40;;;;;;;2.10;0.70;;;16.10;87.80;;;;;;5026737;28;20377;-62
2021/10/04 05:21:06;;;;;;;2.10;0.75;;;16.10;87.80;;;;;;5006561;28;20079;-62
2021/10/04 05:23:32;;;;;;;1.63;1.00;;;16.10;87.90;;;;;;5009168;28;20049;-62
2021/10/04 05:25:58;;;;;;;1.17;0.77;;;16.10;87.90;;;;;;5025711;28;20038;-59
2021/10/04 05:28:23;;;;;;;2.97;0.85;;;16.00;87.90;;;;;;5028518;28;20044;-60
2021/10/04 05:30:49;;;;;;;1.92;1.05;;;16.00;88.00;;;;;;5019837;28;20508;-60
2021/10/04 05:33:14;;;;;;;2.95;0.60;;;16.00;88.10;;;;;;5023614;28;20036;-60
2021/10/04 05:35:40;;;;;;;0.57;0.47;;;16.00;88.20;;;;;;5024991;28;20053;-59
2021/10/04 05:38:05;;;;;;;0.80;0.65;;;16.00;88.20;;;;;;5021248;28;20033;-60
2021/10/04 05:40:31;;;;;;;1.65;0.93;;;16.00;88.30;;;;;;5028969;28;20037;-60
2021/10/04 05:42:56;;;;;;;1.75;0.60;;;16.00;88.40;;;;;;5027251;28;20036;-59
2021/10/04 05:45:22;;;;;;;2.35;0.50;;;16.00;88.40;;;;;;5028390;28;20033;-59
2021/10/04 05:47:47;;;;;;;1.30;0.63;;;16.00;88.50;;;;;;5018583;28;20042;-60
2021/10/04 05:50:13;;;;;;;3.33;0.63;;;15.90;88.50;;;;;;5026038;28;20116;-60
2021/10/04 05:52:38;;;;;;;1.52;0.88;;;15.90;88.60;;;;;;5027902;28;20343;-59
2021/10/04 05:55:05;;;;;;;0.80;0.50;;;15.90;88.80;;;;;;5027909;28;20445;-60
2021/10/04 05:57:30;;;;;;;1.15;0.60;;;15.90;89.00;;;;;;5009553;28;20547;-60
2021/10/04 05:59:56;;;;;;;2.45;0.80;;;15.90;89.10;;;;;;5025639;28;20041;-60
2021/10/04 06:02:22;;;;;;;1.23;0.70;;;15.80;89.20;;;;;;5022813;28;20219;-62
2021/10/04 06:04:47;;;;;;;4.75;0.82;;;15.80;89.40;;;;;;5017566;28;20466;-62
2021/10/04 06:07:13;;;;;;;2.50;0.93;;;15.80;89.50;;;;;;5026356;28;20030;-62
2021/10/04 06:09:39;;;;;;;3.15;0.80;;;15.80;89.50;;;;;;5017034;28;20038;-61
2021/10/04 06:12:04;;;;;;;2.28;0.70;;;15.80;89.60;;;;;;5023326;28;20055;-61
2021/10/04 06:14:30;;;;;;;2.22;0.90;;;15.80;89.60;;;;;;5024654;28;20125;-62
2021/10/04 06:16:55;;;;;;;1.52;0.80;;;15.80;89.70;;;;;;5023241;28;20257;-61
2021/10/04 06:19:21;;;;;;;2.17;0.68;;;15.80;89.80;;;;;;5017033;28;20042;-62
2021/10/04 06:21:47;;;;;;;7.03;1.08;;;15.80;89.80;;;;;;5023401;28;20033;-61
2021/10/04 06:24:13;;;;;;;3.65;1.00;;;15.80;89.90;;;;;;5021424;28;20021;-62
2021/10/04 06:26:38;;;;;;;10.57;1.15;;;15.80;89.80;;;;;;5018800;28;20104;-62
2021/10/04 06:29:04;;;;;;;4.43;1.00;;;15.80;89.70;;;;;;5020307;28;20013;-62
2021/10/04 06:31:30;;;;;;;4.50;1.08;;;15.80;89.90;;;;;;5018401;28;20025;-61
2021/10/04 06:33:55;;;;;;;5.50;1.05;;;15.80;89.90;;;;;;5017924;28;20038;-61
2021/10/04 06:36:21;;;;;;;2.30;0.95;;;15.80;89.90;;;;;;5019145;28;20515;-62
2021/10/04 06:38:46;;;;;;;7.00;1.15;;;15.90;90.00;;;;;;5015671;28;20022;-61
2021/10/04 06:41:12;;;;;;;7.88;1.13;;;15.80;90.00;;;;;;5019863;28;20375;-61
2021/10/04 06:43:37;;;;;;;5.13;1.20;;;15.90;90.10;;;;;;5018151;28;20120;-62
2021/10/04 06:46:07;;;;;;;3.63;1.13;;;15.80;90.00;;;;;;5015440;28;20041;-62
2021/10/04 06:48:36;;;;;;;6.05;1.10;;;15.80;90.00;;;;;;5020263;28;20132;-62
2021/10/04 06:51:02;;;;;;;8.50;1.42;;;15.90;90.10;;;;;;5021470;28;20103;-62
2021/10/04 06:53:27;;;;;;;8.23;1.48;;;15.90;90.10;;;;;;5017727;28;20037;-61
2021/10/04 06:55:53;;;;;;;12.02;1.40;;;15.90;90.10;;;;;;5018166;28;20047;-62
2021/10/04 06:58:18;;;;;;;11.27;1.60;;;15.90;90.10;;;;;;5020954;28;20036;-59
2021/10/04 07:00:44;;;;;;;13.05;1.48;;;15.80;90.10;;;;;;5019377;28;20428;-62
2021/10/04 07:03:09;;;;;;;21.77;3.35;;;15.80;90.20;;;;;;5018265;28;20449;-62
2021/10/04 07:05:35;;;;;;;12.20;1.92;;;15.80;90.30;;;;;;5019660;28;20033;-62
2021/10/04 07:08:00;;;;;;;14.45;2.30;;;15.90;90.70;;;;;;5001593;28;20049;-62
2021/10/04 07:10:26;;;;;;;14.98;2.00;;;15.80;90.40;;;;;;5001769;28;20457;-62
2021/10/04 07:12:52;;;;;;;11.25;1.55;;;15.80;90.50;;;;;;5003578;28;20614;-59
2021/10/04 07:15:17;;;;;;;10.98;2.45;;;15.70;90.60;;;;;;5017979;28;20045;-60
2021/10/04 07:17:43;;;;;;;8.82;1.65;;;15.70;90.70;;;;;;5015237;28;20033;-59
2021/10/04 07:20:09;;;;;;;5.30;2.00;;;15.70;90.70;;;;;;5016775;28;20090;-59
2021/10/04 07:22:35;;;;;;;6.28;1.92;;;15.60;90.80;;;;;;5018895;28;20037;-59
2021/10/04 07:25:01;;;;;;;29.00;3.35;;;15.60;90.90;;;;;;4999712;28;20022;-61
2021/10/04 07:27:27;;;;;;;21.00;2.30;;;15.60;91.00;;;;;;5016949;28;20064;-62
2021/10/04 07:29:52;;;;;;;19.05;2.53;;;15.60;90.90;;;;;;5018022;28;20032;-62
2021/10/04 07:32:18;;;;;;;25.65;2.67;;;15.60;91.00;;;;;;5018670;28;20409;-62
2021/10/04 07:34:43;;;;;;;35.00;3.35;;;15.60;91.00;;;;;;5017871;28;20565;-62
2021/10/04 07:37:09;;;;;;;23.48;3.20;;;15.50;91.10;;;;;;5001352;28;20694;-61
2021/10/04 07:39:34;;;;;;;33.65;3.25;;;15.60;91.10;;;;;;5018218;28;20059;-62
2021/10/04 07:42:00;;;;;;;22.48;2.42;;;15.50;91.20;;;;;;5017166;28;20029;-63
2021/10/04 07:44:26;;;;;;;15.77;2.67;;;15.50;91.20;;;;;;5019854;28;20026;-64
2021/10/04 07:46:53;;;;;;;40.08;4.35;;;15.50;91.30;;;;;;5018128;28;20049;-62
2021/10/04 07:49:18;;;;;;;24.40;3.05;;;15.50;91.40;;;;;;5018502;28;20036;-65
2021/10/04 07:51:44;;;;;;;18.17;3.22;;;15.50;91.40;;;;;;5017598;28;20065;-63
2021/10/04 07:54:09;;;;;;;23.15;3.33;;;15.50;91.40;;;;;;5015399;28;20449;-61
2021/10/04 07:56:38;;;;;;;19.17;2.97;;;15.50;91.50;;;;;;5017027;28;20026;-62
2021/10/04 07:59:05;;;;;;;30.05;3.28;;;15.50;91.40;;;;;;5017928;28;20117;-62
2021/10/04 08:01:32;;;;;;;13.75;2.65;;;15.50;91.40;;;;;;5019522;28;20619;-63
2021/10/04 08:03:57;;;;;;;28.20;3.15;;;15.50;91.40;;;;;;5018379;28;20065;-61
2021/10/04 08:06:25;;;;;;;25.25;4.00;;;15.50;91.40;;;;;;5015707;28;20026;-62
2021/10/04 08:08:51;;;;;;;30.48;3.50;;;15.50;91.40;;;;;;5017806;28;20479;-62
2021/10/04 08:11:16;;;;;;;28.90;3.38;;;15.50;91.50;;;;;;5017847;28;20037;-63
2021/10/04 08:13:45;;;;;;;20.40;3.42;;;15.50;91.50;;;;;;5017047;28;20046;-62
2021/10/04 08:16:10;;;;;;;23.50;3.40;;;15.50;91.60;;;;;;5017275;28;20079;-62
2021/10/04 08:18:36;;;;;;;38.00;5.22;;;15.50;91.50;;;;;;5017740;28;20476;-61
2021/10/04 08:21:01;;;;;;;32.75;3.97;;;15.50;91.50;;;;;;5001632;28;20045;-62
2021/10/04 08:23:27;;;;;;;67.18;7.55;;;15.50;91.60;;;;;;5017370;28;20045;-61
2021/10/04 08:25:52;;;;;;;46.45;5.47;;;15.60;91.60;;;;;;5014925;28;20681;-62
2021/10/04 08:28:18;;;;;;;29.85;4.28;;;15.50;91.70;;;;;;5015339;28;20068;-61
2021/10/04 08:30:43;;;;;;;31.85;4.35;;;15.50;91.70;;;;;;5018335;28;20044;-62
2021/10/04 08:33:09;;;;;;;36.38;4.38;;;15.50;91.80;;;;;;5019171;28;20025;-62
2021/10/04 08:35:35;;;;;;;40.72;5.32;;;15.50;91.80;;;;;;5018240;28;20131;-61
2021/10/04 08:38:00;;;;;;;46.15;5.78;;;15.50;91.90;;;;;;5016005;28;20025;-61
2021/10/04 08:40:26;;;;;;;56.63;5.20;;;15.60;92.00;;;;;;5016430;28;20376;-62
2021/10/04 08:42:51;;;;;;;60.63;7.28;;;15.50;92.00;;;;;;5001537;28;20433;-61
2021/10/04 08:45:17;;;;;;;50.45;5.70;;;15.50;92.20;;;;;;5018699;28;20056;-61
2021/10/04 08:47:42;;;;;;;41.47;5.80;;;15.60;92.20;;;;;;5021524;28;20144;-61
2021/10/04 08:50:13;;;;;;;41.03;4.57;;;15.50;92.20;;;;;;5016308;28;20485;-62
2021/10/04 08:52:39;;;;;;;33.08;5.10;;;15.60;92.30;;;;;;5016940;28;20124;-61
2021/10/04 08:55:05;;;;;;;38.22;4.85;;;15.60;92.30;;;;;;5016606;28;20112;-61
2021/10/04 08:57:30;;;;;;;36.78;4.45;;;15.60;92.30;;;;;;5017139;28;20076;-62
2021/10/04 08:59:56;;;;;;;33.30;3.90;;;15.60;92.40;;;;;;5019880;28;20075;-61
2021/10/04 09:02:26;;;;;;;56.65;6.90;;;15.60;92.40;;;;;;5020388;28;20037;-62
2021/10/04 09:05:12;;;;;;;31.52;4.82;;;15.60;92.60;;;;;;5017189;28;20056;-62
2021/10/04 09:07:41;;;;;;;52.08;5.90;;;15.60;92.60;;;;;;5016716;28;20026;-61
2021/10/04 09:10:07;;;;;;;52.50;5.72;;;15.60;92.50;;;;;;5017753;28;20106;-62
2021/10/04 09:12:42;;;;;;;35.88;5.22;;;15.60;92.70;;;;;;5019770;28;20037;-61
2021/10/04 09:15:17;;;;;;;;;;;15.60;92.70;;;;;;5015102;28;20022;-61
2021/10/04 09:17:43;;;;;;;34.92;4.43;;;15.60;92.80;;;;;;5016662;28;19909;-61
2021/10/04 09:20:08;;;;;;;55.88;6.85;;;15.60;92.60;;;;;;5015310;28;20025;-61
2021/10/04 09:22:34;;;;;;;28.02;4.70;;;15.60;92.70;;;;;;5012725;28;20482;-61
2021/10/04 09:25:00;;;;;;;39.75;4.85;;;15.60;92.70;;;;;;5019337;28;20096;-61
2021/10/04 09:27:31;;;;;;;54.28;5.15;;;15.60;92.60;;;;;;5023860;28;20243;-61
2021/10/04 09:29:57;;;;;;;45.28;5.03;;;15.60;92.70;;;;;;5019915;28;20358;-59
2021/10/04 09:32:50;;;;;;;33.75;4.20;;;15.60;92.70;;;;;;5017917;28;20124;-59
2021/10/04 09:35:35;;;;;;;36.58;3.88;;;15.60;92.50;;;;;;5021129;28;20042;-59
2021/10/04 09:38:01;;;;;;;34.55;4.97;;;15.70;92.50;;;;;;5020464;28;20033;-59
2021/10/04 09:40:28;;;;;;;36.08;4.72;;;15.60;92.40;;;;;;5020225;28;20865;-59
2021/10/04 09:42:53;;;;;;;39.38;4.75;;;15.60;92.40;;;;;;5018451;28;20037;-59
2021/10/04 09:45:19;;;;;;;35.83;4.85;;;15.70;92.50;;;;;;4989392;28;20053;-59
2021/10/04 09:47:45;;;;;;;26.00;3.70;;;15.70;92.40;;;;;;4991905;28;20123;-60
2021/10/04 09:50:15;;;;;;;29.50;4.40;;;15.60;92.40;;;;;;4993041;28;20033;-59
2021/10/04 09:52:54;;;;;;;40.03;4.43;;;15.70;92.50;;;;;;4994095;28;20033;-59
2021/10/04 09:55:30;;;;;;;38.47;4.10;;;15.70;92.40;;;;;;4992383;28;20061;-62
2021/10/04 09:58:04;;;;;;;23.70;4.43;;;15.70;92.40;;;;;;4991274;28;21107;-61
2021/10/04 10:00:59;;;;;;;28.60;4.10;;;15.70;92.40;;;;;;4991987;28;20040;-63
2021/10/04 10:03:39;;;;;;;19.40;3.60;;;15.70;92.20;;;;;;4991135;28;20091;-62
2021/10/04 10:06:04;;;;;;;26.75;3.75;;;15.80;92.20;;;;;;4973583;28;20038;-62
2021/10/04 10:08:30;;;;;;;29.30;3.88;;;15.80;92.10;;;;;;4990416;28;20064;-62
2021/10/04 10:11:00;;;;;;;29.27;4.10;;;15.80;92.10;;;;;;4989341;28;20764;-62
2021/10/04 10:13:28;;;;;;;27.52;3.83;;;15.80;92.00;;;;;;4990852;28;20291;-62
2021/10/04 10:16:15;;;;;;;20.52;4.32;;;15.90;91.90;;;;;;4992311;28;20021;-59
2021/10/04 10:18:54;;;;;;;54.08;6.20;;;15.90;92.00;;;;;;5017868;28;20330;-62
2021/10/04 10:21:27;;;;;;;54.08;6.30;;;16.00;92.00;;;;;;5019727;28;20060;-62
2021/10/04 10:23:57;;;;;;;50.03;5.97;;;15.90;91.80;;;;;;5018997;28;20124;-62
2021/10/04 10:26:33;;;;;;;50.22;5.07;;;16.00;91.80;;;;;;5016085;28;20045;-62
2021/10/04 10:29:16;;;;;;;43.42;5.53;;;16.00;91.80;;;;;;5020214;28;20030;-62
2021/10/04 10:31:48;;;;;;;57.05;6.32;;;16.10;91.80;;;;;;5017614;28;20029;-61
2021/10/04 10:34:29;;;;;;;38.95;4.70;;;16.20;91.90;;;;;;5016567;28;20306;-62
2021/10/04 10:37:23;;;;;;;47.00;5.93;;;16.10;91.90;;;;;;5017933;28;20094;-62
2021/10/04 10:39:53;;;;;;;45.90;4.68;;;16.20;91.80;;;;;;5018792;28;20033;-62
2021/10/04 10:42:31;;;;;;;43.20;6.38;;;16.20;91.80;;;;;;5002131;28;20064;-61
2021/10/04 10:44:57;;;;;;;38.08;5.38;;;16.20;91.80;;;;;;5019480;28;20116;-62
2021/10/04 10:50:27;;;;;;;44.67;6.40;;;16.30;91.90;;;;;;5019861;28;20362;-61
2021/10/04 10:52:55;;;;;;;39.00;5.20;;;16.30;91.60;;;;;;5014368;28;20113;-62
2021/10/04 10:55:21;;;;;;;63.78;6.97;;;16.40;91.60;;;;;;5019968;28;20523;-62
2021/10/04 10:57:50;;;;;;;67.38;8.00;;;16.40;91.80;;;;;;5014960;28;20241;-61
2021/10/04 11:00:25;;;;;;;51.13;6.30;;;16.40;91.70;;;;;;5018586;28;20051;-62
2021/10/04 11:02:55;;;;;;;76.65;8.40;;;16.40;91.80;;;;;;5017124;28;20516;-62
2021/10/04 11:05:38;;;;;;;87.20;7.13;;;16.50;91.90;;;;;;5017889;28;20037;-62
2021/10/04 11:08:09;;;;;;;70.82;6.57;;;16.50;91.80;;;;;;5019102;28;20099;-62
2021/10/04 11:10:56;;;;;;;74.22;5.95;;;16.50;91.70;;;;;;5014315;28;20512;-62
2021/10/04 11:13:28;;;;;;;;;;;16.60;91.60;;;;;;5013552;28;20132;-62
2021/10/04 11:15:55;;;;;;;47.72;5.68;;;16.50;91.60;;;;;;5019298;28;19909;-62
2021/10/04 11:18:21;;;;;;;51.28;5.68;;;16.60;91.60;;;;;;5019023;28;20029;-62
2021/10/04 11:20:47;;;;;;;34.97;5.47;;;16.60;91.50;;;;;;5015855;28;20086;-62
2021/10/04 11:23:16;;;;;;;42.85;5.28;;;16.60;91.40;;;;;;5020361;28;20030;-62
2021/10/04 11:25:49;;;;;;;55.13;5.18;;;16.60;91.30;;;;;;5015576;28;20386;-62
2021/10/04 11:28:16;;;;;;;60.67;7.20;;;16.70;91.40;;;;;;5016494;28;20117;-62
2021/10/04 11:30:59;;;;;;;40.10;5.22;;;16.70;91.30;;;;;;5018674;28;20045;-62
2021/10/04 11:33:29;;;;;;;43.78;5.57;;;16.70;91.20;;;;;;5016164;28;20432;-59
2021/10/04 11:36:01;;;;;;;34.40;5.82;;;16.70;91.10;;;;;;5022015;28;20153;-59
2021/10/04 11:38:32;;;;;;;31.45;4.72;;;16.80;91.10;;;;;;5019058;28;20059;-59
2021/10/04 11:40:57;;;;;;;28.77;4.47;;;16.80;91.00;;;;;;5016378;28;20032;-62
2021/10/04 11:43:24;;;;;;;40.95;5.57;;;16.80;90.90;;;;;;5016622;28;20348;-62
2021/10/04 11:45:50;;;;;;;55.22;5.65;;;16.90;90.90;;;;;;5014139;28;20176;-62
2021/10/04 11:48:39;;;;;;;36.90;4.55;;;16.90;90.80;;;;;;5011426;28;20100;-62
2021/10/04 11:51:04;;;;;;;30.00;5.03;;;16.90;90.70;;;;;;5015946;28;20037;-62
2021/10/04 11:53:30;;;;;;;38.20;4.88;;;16.90;90.60;;;;;;5018112;28;20067;-62
2021/10/04 11:56:00;;;;;;;40.47;4.35;;;16.90;90.50;;;;;;5017693;28;20137;-62
2021/10/04 11:58:26;;;;;;;37.95;4.80;;;16.90;90.50;;;;;;5018891;28;20037;-62
2021/10/04 12:00:52;;;;;;;28.30;4.70;;;16.90;90.50;;;;;;5018020;28;20029;-62
2021/10/04 12:03:31;;;;;;;21.27;3.90;;;17.00;90.40;;;;;;5018868;28;20033;-62
2021/10/04 12:05:57;;;;;;;32.47;3.95;;;17.00;90.50;;;;;;5016213;28;20029;-62
2021/10/04 12:08:23;;;;;;;38.95;4.32;;;17.00;90.10;;;;;;5019418;28;20045;-62
2021/10/04 12:10:56;;;;;;;23.95;3.70;;;17.00;90.10;;;;;;5017893;28;20056;-62
2021/10/04 12:13:36;;;;;;;25.60;3.70;;;17.00;90.40;;;;;;5018534;28;20231;-62
2021/10/04 12:16:06;;;;;;;33.13;4.30;;;17.00;90.00;;;;;;5001704;28;20028;-62
2021/10/04 12:18:32;;;;;;;27.48;3.85;;;17.00;90.00;;;;;;5014201;28;20033;-62
2021/10/04 12:21:23;;;;;;;28.45;4.28;;;17.00;90.00;;;;;;5016014;28;20473;-62
2021/10/04 12:24:14;;;;;;;20.77;4.22;;;17.00;89.80;;;;;;5014300;28;20528;-62
2021/10/04 12:26:58;;;;;;;27.83;3.60;;;17.00;89.80;;;;;;5014746;28;20270;-62
2021/10/04 12:29:32;;;;;;;51.05;4.78;;;17.00;89.60;;;;;;5020226;28;20047;-62
2021/10/04 12:32:13;;;;;;;39.00;5.47;;;17.00;89.80;;;;;;5018551;28;20064;-62
2021/10/04 12:34:39;;;;;;;29.35;4.35;;;17.00;89.90;;;;;;5019662;28;20099;-61
2021/10/04 12:37:04;;;;;;;36.55;4.82;;;17.10;89.60;;;;;;5018114;28;20131;-62
2021/10/04 12:39:41;;;;;;;36.58;4.72;;;17.10;89.60;;;;;;5018752;28;20516;-62
2021/10/04 12:42:06;;;;;;;63.10;6.30;;;17.10;89.50;;;;;;5017524;28;20116;-62
2021/10/04 12:44:36;;;;;;;39.35;4.75;;;17.10;89.70;;;;;;5015662;28;20135;-62
2021/10/04 12:47:11;;;;;;;35.30;4.53;;;17.10;89.60;;;;;;5015030;28;20021;-62